createdAt,value
2019-05-18T00:00:34.230Z,99.90
2019-05-18T00:03:06.156Z,99.90
2019-05-18T00:05:37.636Z,99.90
2019-05-18T00:08:09.477Z,99.90
2019-05-18T00:10:41.086Z,99.90
2019-05-18T00:13:12.689Z,99.90
2019-05-18T00:15:44.174Z,99.90
2019-05-18T00:18:15.715Z,99.90
2019-05-18T00:20:47.252Z,99.90
2019-05-18T00:23:18.754Z,99.90
2019-05-18T00:25:50.340Z,99.90
2019-05-18T00:28:23.004Z,99.90
2019-05-18T00:30:54.619Z,99.90
2019-05-18T00:33:26.434Z,99.90
2019-05-18T00:35:58.868Z,99.90
2019-05-18T00:38:30.363Z,99.90
2019-05-18T00:41:01.848Z,99.90
2019-05-18T00:43:33.345Z,99.90
2019-05-18T00:46:05.226Z,99.90
2019-05-18T00:48:36.712Z,99.90
2019-05-18T00:51:08.197Z,99.90
2019-05-18T00:53:39.768Z,99.90
2019-05-18T00:56:11.246Z,99.90
2019-05-18T00:58:42.811Z,99.90
2019-05-18T01:01:15.265Z,99.90
2019-05-18T01:03:46.669Z,99.90
2019-05-18T01:06:18.385Z,99.90
2019-05-18T01:08:50.214Z,99.90
2019-05-18T01:11:21.696Z,99.90
2019-05-18T01:13:53.214Z,99.90
2019-05-18T01:16:25.104Z,99.90
2019-05-18T01:18:56.673Z,99.90
2019-05-18T01:21:29.221Z,99.90
2019-05-18T01:24:00.725Z,99.90
2019-05-18T01:26:32.480Z,99.90
2019-05-18T01:29:06.625Z,99.90
2019-05-18T01:31:38.140Z,99.90
2019-05-18T01:34:09.623Z,99.90
2019-05-18T01:36:41.433Z,99.90
2019-05-18T01:39:12.943Z,99.90
2019-05-18T01:41:44.423Z,99.90
2019-05-18T01:44:15.922Z,99.90
2019-05-18T01:46:47.407Z,99.90
2019-05-18T01:49:18.846Z,99.90
2019-05-18T01:51:50.365Z,99.90
2019-05-18T01:54:21.881Z,99.90
2019-05-18T01:56:53.375Z,99.90
2019-05-18T01:59:24.875Z,99.90
2019-05-18T02:01:56.355Z,99.90
2019-05-18T02:04:27.925Z,99.90
2019-05-18T02:06:59.522Z,99.90
2019-05-18T02:09:30.892Z,99.90
2019-05-18T02:12:02.383Z,99.90
2019-05-18T02:14:34.902Z,99.90
2019-05-18T02:17:06.673Z,99.90
2019-05-18T02:19:38.171Z,99.90
2019-05-18T02:22:09.982Z,99.90
2019-05-18T02:24:41.485Z,99.90
2019-05-18T02:27:12.921Z,99.90
2019-05-18T02:29:44.703Z,99.90
2019-05-18T02:32:16.453Z,99.90
2019-05-18T02:34:47.967Z,99.90
2019-05-18T02:37:19.360Z,99.90
2019-05-18T02:39:54.932Z,99.90
2019-05-18T02:42:30.518Z,99.90
2019-05-18T02:44:59.578Z,99.90
2019-05-18T02:47:31.101Z,99.90
2019-05-18T02:50:02.580Z,99.90
2019-05-18T02:52:34.081Z,99.90
2019-05-18T02:55:06.342Z,99.90
2019-05-18T02:57:37.848Z,99.90
2019-05-18T03:00:10.575Z,99.90
2019-05-18T03:02:42.037Z,99.90
2019-05-18T03:05:14.076Z,99.90
2019-05-18T03:07:45.561Z,99.90
2019-05-18T03:10:17.469Z,99.90
2019-05-18T03:12:48.975Z,99.90
2019-05-18T03:15:20.459Z,99.90
2019-05-18T03:17:52.015Z,99.90
2019-05-18T03:20:23.503Z,99.90
2019-05-18T03:22:54.893Z,99.90
2019-05-18T03:25:26.393Z,99.90
2019-05-18T03:27:57.894Z,99.90
2019-05-18T03:30:29.444Z,99.90
2019-05-18T03:33:00.886Z,99.90
2019-05-18T03:35:32.758Z,99.90
2019-05-18T03:38:04.338Z,99.90
2019-05-18T03:40:35.794Z,99.90
2019-05-18T03:43:07.341Z,99.90
2019-05-18T03:45:38.762Z,99.90
2019-05-18T03:48:10.272Z,99.90
2019-05-18T03:50:41.744Z,99.90
2019-05-18T03:53:13.218Z,99.90
2019-05-18T03:55:44.681Z,99.90
2019-05-18T03:58:16.061Z,99.90
2019-05-18T04:00:47.488Z,99.90
2019-05-18T04:03:19.217Z,99.90
2019-05-18T04:05:51.116Z,99.90
2019-05-18T04:08:22.661Z,99.90
2019-05-18T04:10:54.394Z,99.90
2019-05-18T04:13:25.846Z,99.90
2019-05-18T04:15:57.290Z,99.90
2019-05-18T04:18:28.748Z,99.90
2019-05-18T04:21:06.246Z,99.90
2019-05-18T04:23:50.914Z,99.90
2019-05-18T04:26:23.454Z,99.90
2019-05-18T04:28:54.834Z,99.90
2019-05-18T04:31:26.261Z,99.90
2019-05-18T04:33:57.770Z,99.90
2019-05-18T04:36:29.532Z,99.90
2019-05-18T04:39:00.829Z,99.90
2019-05-18T04:41:33.625Z,99.90
2019-05-18T04:44:05.464Z,99.90
2019-05-18T04:46:36.971Z,99.90
2019-05-18T04:49:08.430Z,99.90
2019-05-18T04:51:39.916Z,99.90
2019-05-18T04:54:11.727Z,99.90
2019-05-18T04:56:43.421Z,99.90
2019-05-18T04:59:14.936Z,99.90
2019-05-18T05:01:46.531Z,99.90
2019-05-18T05:04:18.005Z,99.90
2019-05-18T05:06:49.571Z,99.90
2019-05-18T05:09:20.953Z,99.90
2019-05-18T05:11:52.952Z,99.90
2019-05-18T05:14:24.211Z,99.90
2019-05-18T05:16:55.917Z,99.90
2019-05-18T05:19:27.399Z,99.90
2019-05-18T05:21:59.142Z,99.90
2019-05-18T05:24:30.687Z,99.90
2019-05-18T05:27:02.230Z,99.90
2019-05-18T05:29:33.695Z,99.90
2019-05-18T05:32:05.512Z,99.90
2019-05-18T05:34:37.118Z,99.90
2019-05-18T05:37:08.949Z,99.90
2019-05-18T05:39:40.539Z,99.90
2019-05-18T05:42:11.989Z,99.90
2019-05-18T05:44:43.316Z,99.90
2019-05-18T05:47:14.902Z,99.90
2019-05-18T05:49:46.214Z,99.90
2019-05-18T05:52:18.063Z,99.90
2019-05-18T05:54:49.750Z,99.90
2019-05-18T05:57:21.208Z,99.90
2019-05-18T05:59:52.980Z,99.90
2019-05-18T06:02:24.442Z,99.90
2019-05-18T06:04:55.946Z,99.90
2019-05-18T06:07:27.421Z,99.90
2019-05-18T06:09:59.150Z,99.90
2019-05-18T06:12:30.538Z,99.90
2019-05-18T06:15:01.885Z,99.90
2019-05-18T06:17:33.311Z,99.90
2019-05-18T06:20:05.191Z,99.90
2019-05-18T06:22:38.360Z,99.90
2019-05-18T06:25:10.838Z,99.90
2019-05-18T06:27:42.362Z,99.90
2019-05-18T06:30:14.198Z,99.90
2019-05-18T06:32:45.602Z,99.90
2019-05-18T06:35:17.189Z,99.90
2019-05-18T06:37:48.572Z,99.90
2019-05-18T06:40:20.375Z,99.90
2019-05-18T06:42:51.997Z,99.90
2019-05-18T06:45:23.676Z,99.90
2019-05-18T06:47:55.192Z,99.90
2019-05-18T06:50:31.269Z,99.90
2019-05-18T06:53:02.901Z,99.90
2019-05-18T06:55:35.552Z,99.90
2019-05-18T06:58:07.525Z,99.90
2019-05-18T07:00:39.308Z,99.90
2019-05-18T07:03:10.993Z,99.90
2019-05-18T07:05:45.575Z,99.90
2019-05-18T07:08:15.789Z,99.90
2019-05-18T07:10:47.331Z,99.90
2019-05-18T07:13:18.735Z,99.90
2019-05-18T07:15:50.256Z,99.90
2019-05-18T07:18:21.840Z,99.90
2019-05-18T07:20:53.194Z,99.90
2019-05-18T07:23:24.602Z,99.90
2019-05-18T07:25:56.589Z,99.90
2019-05-18T07:28:27.991Z,99.90
2019-05-18T07:30:59.441Z,99.90
2019-05-18T07:33:30.833Z,99.90
2019-05-18T07:36:02.220Z,99.90
2019-05-18T07:38:33.469Z,99.90
2019-05-18T07:41:05.763Z,99.90
2019-05-18T07:43:38.158Z,99.90
2019-05-18T07:46:09.678Z,99.90
2019-05-18T07:48:41.075Z,99.90
2019-05-18T07:51:12.494Z,99.90
2019-05-18T07:53:43.959Z,99.90
2019-05-18T07:56:15.401Z,99.90
2019-05-18T07:58:47.246Z,99.90
2019-05-18T08:01:18.962Z,99.90
2019-05-18T08:03:50.418Z,99.90
2019-05-18T08:06:22.286Z,99.90
2019-05-18T08:08:53.929Z,99.90
2019-05-18T08:11:25.417Z,99.90
2019-05-18T08:13:56.898Z,98.90
2019-05-18T08:16:28.322Z,99.90
2019-05-18T08:18:59.817Z,99.90
2019-05-18T08:21:31.661Z,99.90
2019-05-18T08:24:03.107Z,99.90
2019-05-18T08:26:34.745Z,97.10
2019-05-18T08:29:06.253Z,97.00
2019-05-18T08:31:37.973Z,96.20
2019-05-18T08:34:09.430Z,92.30
2019-05-18T08:36:40.927Z,95.30
2019-05-18T08:39:12.393Z,94.20
2019-05-18T08:41:43.934Z,97.10
2019-05-18T08:44:15.274Z,99.90
2019-05-18T08:46:46.750Z,93.50
2019-05-18T08:49:18.180Z,98.00
2019-05-18T08:51:49.656Z,93.80
2019-05-18T08:54:21.655Z,93.40
2019-05-18T08:56:53.177Z,90.50
2019-05-18T08:59:24.646Z,92.70
2019-05-18T09:01:56.235Z,90.60
2019-05-18T09:04:27.547Z,88.20
2019-05-18T09:06:58.956Z,92.20
2019-05-18T09:09:30.518Z,87.50
2019-05-18T09:12:02.057Z,91.50
2019-05-18T09:14:33.984Z,87.20
2019-05-18T09:17:05.474Z,82.60
2019-05-18T09:19:37.088Z,85.80
2019-05-18T09:22:22.440Z,78.50
2019-05-18T09:24:41.863Z,89.70
2019-05-18T09:27:13.379Z,85.40
2019-05-18T09:29:44.927Z,86.00
2019-05-18T09:32:16.382Z,85.70
2019-05-18T09:34:47.811Z,88.40
2019-05-18T09:37:19.286Z,90.80
2019-05-18T09:39:50.799Z,76.40
2019-05-18T09:42:22.272Z,80.00
2019-05-18T09:44:54.184Z,85.20
2019-05-18T09:47:25.781Z,78.40
2019-05-18T09:49:57.338Z,77.80
2019-05-18T09:52:44.340Z,73.90
2019-05-18T09:55:02.365Z,78.30
2019-05-18T09:57:34.890Z,69.30
2019-05-18T10:00:07.608Z,72.60
2019-05-18T10:02:39.091Z,71.80
2019-05-18T10:05:11.015Z,73.40
2019-05-18T10:07:42.576Z,69.30
2019-05-18T10:10:15.261Z,68.90
2019-05-18T10:12:46.847Z,64.90
2019-05-18T10:15:18.730Z,69.40
2019-05-18T10:17:50.064Z,68.60
2019-05-18T10:20:21.888Z,67.60
2019-05-18T10:23:10.390Z,66.20
2019-05-18T10:25:28.067Z,66.70
2019-05-18T10:27:59.850Z,66.00
2019-05-18T10:30:31.172Z,61.00
2019-05-18T10:33:02.766Z,64.70
2019-05-18T10:35:34.264Z,62.10
2019-05-18T10:38:06.107Z,61.40
2019-05-18T10:40:37.767Z,69.20
2019-05-18T10:43:09.548Z,61.90
2019-05-18T10:45:44.796Z,61.70
2019-05-18T10:48:14.456Z,59.90
2019-05-18T10:50:46.514Z,58.50
2019-05-18T10:53:28.400Z,63.10
2019-05-18T10:55:51.627Z,62.60
2019-05-18T10:58:23.104Z,57.30
2019-05-18T11:00:54.843Z,58.80
2019-05-18T11:03:26.774Z,55.80
2019-05-18T11:05:58.243Z,56.90
2019-05-18T11:08:29.684Z,59.30
2019-05-18T11:11:01.539Z,54.70
2019-05-18T11:13:33.031Z,57.40
2019-05-18T11:16:04.588Z,54.80
2019-05-18T11:18:36.119Z,58.50
2019-05-18T11:21:07.676Z,55.40
2019-05-18T11:23:43.616Z,53.90
2019-05-18T11:26:14.092Z,53.80
2019-05-18T11:28:45.838Z,55.20
2019-05-18T11:31:17.325Z,56.40
2019-05-18T11:33:48.789Z,55.10
2019-05-18T11:36:20.269Z,55.30
2019-05-18T11:38:51.907Z,53.60
2019-05-18T11:41:23.406Z,55.10
2019-05-18T11:43:54.806Z,54.50
2019-05-18T11:46:29.557Z,55.60
2019-05-18T11:49:01.113Z,54.00
2019-05-18T11:51:32.605Z,55.30
2019-05-18T11:54:04.172Z,52.30
2019-05-18T11:56:36.262Z,50.40
2019-05-18T11:59:07.651Z,49.80
2019-05-18T12:01:39.104Z,52.10
2019-05-18T12:04:10.604Z,52.10
2019-05-18T12:06:42.163Z,54.10
2019-05-18T12:09:13.563Z,50.50
2019-05-18T12:11:45.043Z,50.30
2019-05-18T12:14:16.595Z,52.40
2019-05-18T12:16:48.774Z,54.20
2019-05-18T12:19:20.267Z,53.50
2019-05-18T12:21:52.240Z,52.80
2019-05-18T12:24:24.352Z,55.30
2019-05-18T12:26:56.126Z,53.20
2019-05-18T12:29:27.711Z,53.50
2019-05-18T12:31:59.495Z,53.10
2019-05-18T12:34:31.035Z,55.80
2019-05-18T12:37:02.535Z,56.70
2019-05-18T12:39:33.960Z,55.20
2019-05-18T12:42:07.566Z,56.20
2019-05-18T12:45:14.189Z,53.20
2019-05-18T12:47:49.475Z,52.70
2019-05-18T12:50:25.388Z,53.90
2019-05-18T12:52:56.881Z,55.50
2019-05-18T12:55:28.377Z,54.70
2019-05-18T12:57:59.955Z,52.70
2019-05-18T13:00:32.898Z,54.00
2019-05-18T13:03:04.380Z,54.40
2019-05-18T13:05:35.887Z,52.10
2019-05-18T13:08:07.661Z,54.00
2019-05-18T13:10:39.461Z,53.30
2019-05-18T13:13:10.959Z,55.50
2019-05-18T13:15:42.551Z,53.50
2019-05-18T13:18:14.035Z,54.90
2019-05-18T13:20:48.078Z,53.60
2019-05-18T13:23:19.757Z,55.00
2019-05-18T13:25:51.559Z,53.40
2019-05-18T13:28:23.494Z,53.60
2019-05-18T13:30:54.934Z,52.90
2019-05-18T13:33:26.413Z,51.30
2019-05-18T13:35:57.954Z,51.40
2019-05-18T13:38:30.065Z,50.70
2019-05-18T13:41:01.561Z,50.40
2019-05-18T13:43:33.035Z,50.80
2019-05-18T13:46:04.821Z,51.00
2019-05-18T13:48:36.357Z,49.90
2019-05-18T13:51:08.102Z,50.60
2019-05-18T13:53:39.489Z,51.30
2019-05-18T13:56:11.043Z,52.80
2019-05-18T13:58:42.520Z,55.20
2019-05-18T14:01:14.000Z,56.00
2019-05-18T14:03:45.886Z,58.30
2019-05-18T14:06:17.219Z,55.90
2019-05-18T14:08:48.911Z,54.80
2019-05-18T14:11:20.438Z,56.00
2019-05-18T14:13:51.887Z,56.10
2019-05-18T14:16:23.343Z,55.80
2019-05-18T14:18:54.794Z,56.60
2019-05-18T14:21:26.190Z,54.10
2019-05-18T14:23:57.682Z,54.40
2019-05-18T14:26:29.221Z,53.80
2019-05-18T14:29:00.620Z,56.10
2019-05-18T14:31:32.112Z,53.70
2019-05-18T14:34:03.597Z,54.10
2019-05-18T14:36:35.070Z,54.70
2019-05-18T14:39:08.652Z,54.70
2019-05-18T14:41:42.526Z,53.20
2019-05-18T14:44:14.122Z,55.40
2019-05-18T14:46:45.612Z,56.90
2019-05-18T14:49:17.222Z,61.20
2019-05-18T14:51:48.623Z,58.10
2019-05-18T14:54:24.978Z,61.70
2019-05-18T14:56:53.305Z,62.40
2019-05-18T14:59:24.771Z,60.60
2019-05-18T15:01:56.269Z,62.10
2019-05-18T15:04:27.939Z,61.40
2019-05-18T15:06:59.352Z,60.20
2019-05-18T15:09:30.824Z,61.60
2019-05-18T15:12:02.293Z,61.30
2019-05-18T15:14:33.772Z,60.60
2019-05-18T15:17:05.235Z,59.70
2019-05-18T15:19:36.679Z,60.20
2019-05-18T15:22:08.989Z,62.90
2019-05-18T15:24:40.398Z,61.00
2019-05-18T15:27:11.975Z,62.90
2019-05-18T15:29:43.433Z,65.00
2019-05-18T15:32:14.870Z,60.20
2019-05-18T15:34:46.321Z,60.80
2019-05-18T15:37:17.776Z,59.90
2019-05-18T15:39:49.688Z,62.60
2019-05-18T15:42:21.173Z,64.60
2019-05-18T15:44:52.618Z,60.40
2019-05-18T15:47:24.087Z,63.50
2019-05-18T15:49:55.402Z,60.60
2019-05-18T15:52:26.803Z,59.40
2019-05-18T15:54:58.209Z,62.10
2019-05-18T15:57:30.244Z,63.80
2019-05-18T16:00:06.201Z,60.80
2019-05-18T16:02:35.595Z,62.00
2019-05-18T16:05:08.036Z,61.80
2019-05-18T16:07:39.839Z,60.90
2019-05-18T16:10:11.873Z,63.60
2019-05-18T16:12:43.363Z,63.00
2019-05-18T16:15:15.413Z,60.50
2019-05-18T16:17:46.979Z,60.30
2019-05-18T16:20:19.073Z,58.70
2019-05-18T16:22:50.601Z,61.10
2019-05-18T16:25:22.064Z,59.30
2019-05-18T16:27:53.471Z,59.90
2019-05-18T16:30:25.522Z,61.30
2019-05-18T16:32:56.983Z,58.80
2019-05-18T16:35:28.811Z,58.80
2019-05-18T16:38:00.285Z,58.30
2019-05-18T16:40:31.766Z,58.30
2019-05-18T16:43:03.435Z,57.30
2019-05-18T16:45:35.196Z,56.10
2019-05-18T16:48:06.668Z,54.80
2019-05-18T16:50:38.239Z,56.70
2019-05-18T16:53:09.991Z,55.90
2019-05-18T16:55:41.477Z,56.00
2019-05-18T16:58:13.121Z,54.80
2019-05-18T17:00:46.061Z,54.10
2019-05-18T17:03:17.919Z,55.20
2019-05-18T17:05:49.572Z,54.40
2019-05-18T17:08:21.325Z,54.10
2019-05-18T17:10:52.751Z,54.70
2019-05-18T17:13:24.387Z,55.20
2019-05-18T17:15:55.947Z,56.50
2019-05-18T17:18:27.406Z,55.60
2019-05-18T17:20:58.894Z,56.00
2019-05-18T17:23:30.214Z,55.90
2019-05-18T17:26:01.801Z,56.10
2019-05-18T17:28:33.513Z,56.20
2019-05-18T17:31:05.085Z,56.80
2019-05-18T17:33:36.604Z,58.00
2019-05-18T17:36:08.188Z,58.90
2019-05-18T17:38:40.330Z,60.20
2019-05-18T17:41:11.831Z,60.70
2019-05-18T17:43:43.308Z,62.50
2019-05-18T17:46:14.899Z,63.40
2019-05-18T17:48:46.475Z,64.70
2019-05-18T17:51:18.532Z,66.30
2019-05-18T17:53:49.928Z,70.60
2019-05-18T17:56:21.479Z,69.50
2019-05-18T17:58:53.086Z,71.40
2019-05-18T18:01:24.825Z,74.40
2019-05-18T18:03:56.292Z,73.60
2019-05-18T18:06:27.746Z,74.70
2019-05-18T18:08:59.272Z,76.70
2019-05-18T18:11:30.756Z,78.60
2019-05-18T18:14:02.234Z,79.00
2019-05-18T18:16:33.745Z,83.50
2019-05-18T18:19:05.501Z,86.30
2019-05-18T18:21:37.743Z,88.40
2019-05-18T18:24:09.377Z,90.70
2019-05-18T18:26:40.711Z,91.70
2019-05-18T18:29:12.208Z,92.60
2019-05-18T18:31:43.701Z,91.50
2019-05-18T18:34:15.196Z,94.00
2019-05-18T18:36:46.692Z,95.10
2019-05-18T18:39:18.269Z,95.90
2019-05-18T18:41:49.802Z,95.70
2019-05-18T18:44:21.243Z,96.10
2019-05-18T18:46:53.100Z,96.90
2019-05-18T18:49:25.244Z,98.00
2019-05-18T18:51:56.739Z,99.80
2019-05-18T18:54:28.169Z,99.90
2019-05-18T18:56:59.671Z,99.90
2019-05-18T18:59:31.160Z,99.90
2019-05-18T19:02:02.547Z,99.90
2019-05-18T19:04:33.947Z,99.90
2019-05-18T19:07:08.981Z,99.90
2019-05-18T19:09:39.000Z,99.90
2019-05-18T19:12:10.535Z,99.90
2019-05-18T19:14:42.039Z,99.90
2019-05-18T19:17:13.570Z,99.90
2019-05-18T19:19:45.011Z,99.90
2019-05-18T19:22:16.514Z,99.90
2019-05-18T19:24:47.917Z,99.90
2019-05-18T19:27:19.479Z,99.90
2019-05-18T19:29:51.977Z,99.90
2019-05-18T19:32:23.475Z,99.90
2019-05-18T19:34:55.006Z,99.90
2019-05-18T19:37:26.685Z,99.90
2019-05-18T19:39:58.218Z,99.90
2019-05-18T19:42:29.702Z,99.90
2019-05-18T19:45:01.236Z,99.90
2019-05-18T19:47:32.910Z,99.90
2019-05-18T19:50:04.573Z,99.90
2019-05-18T19:52:36.472Z,99.90
2019-05-18T19:55:08.838Z,99.90
2019-05-18T19:57:40.383Z,99.90
2019-05-18T20:00:12.831Z,99.90
2019-05-18T20:02:44.624Z,99.90
2019-05-18T20:05:16.134Z,99.90
2019-05-18T20:07:47.794Z,99.90
2019-05-18T20:10:19.743Z,99.90
2019-05-18T20:12:51.289Z,99.90
2019-05-18T20:15:22.895Z,99.90
2019-05-18T20:17:54.605Z,99.90
2019-05-18T20:20:26.021Z,99.90
2019-05-18T20:22:57.577Z,99.90
2019-05-18T20:25:29.124Z,99.90
2019-05-18T20:28:00.471Z,99.90
2019-05-18T20:30:31.937Z,99.90
2019-05-18T20:33:03.426Z,99.90
2019-05-18T20:35:34.977Z,99.90
2019-05-18T20:38:06.405Z,99.90
2019-05-18T20:40:37.767Z,99.90
2019-05-18T20:43:09.250Z,99.90
2019-05-18T20:45:41.044Z,99.90
2019-05-18T20:48:12.567Z,99.90
2019-05-18T20:50:43.996Z,99.90
2019-05-18T20:53:15.491Z,99.90
2019-05-18T20:55:47.393Z,99.90
2019-05-18T20:58:18.962Z,99.90
2019-05-18T21:00:50.462Z,99.90
2019-05-18T21:03:21.946Z,99.90
2019-05-18T21:05:53.411Z,99.90
2019-05-18T21:08:24.919Z,99.90
2019-05-18T21:10:56.292Z,99.90
2019-05-18T21:13:27.724Z,99.90
2019-05-18T21:15:59.204Z,99.90
2019-05-18T21:18:30.685Z,99.90
2019-05-18T21:21:02.024Z,99.90
2019-05-18T21:23:33.845Z,99.90
2019-05-18T21:26:05.330Z,99.90
2019-05-18T21:28:36.853Z,99.90
2019-05-18T21:31:08.376Z,99.90
2019-05-18T21:33:39.852Z,99.90
2019-05-18T21:36:11.352Z,99.90
2019-05-18T21:38:42.858Z,99.90
2019-05-18T21:41:14.338Z,99.90
2019-05-18T21:43:46.097Z,99.90
2019-05-18T21:46:17.787Z,99.90
2019-05-18T21:48:49.269Z,99.90
2019-05-18T21:51:20.789Z,99.90
2019-05-18T21:53:52.634Z,99.90
2019-05-18T21:56:24.515Z,99.90
2019-05-18T21:59:10.569Z,99.90
2019-05-18T22:01:29.782Z,99.90
2019-05-18T22:04:01.606Z,99.90
2019-05-18T22:06:33.353Z,99.90
2019-05-18T22:09:06.381Z,99.90
2019-05-18T22:11:38.033Z,99.90
2019-05-18T22:14:09.527Z,99.90
2019-05-18T22:16:40.959Z,99.90
2019-05-18T22:19:12.899Z,99.90
2019-05-18T22:21:44.285Z,99.90
2019-05-18T22:24:15.805Z,99.90
2019-05-18T22:26:47.227Z,99.90
2019-05-18T22:29:19.061Z,99.90
2019-05-18T22:31:50.602Z,99.90
2019-05-18T22:34:21.987Z,99.90
2019-05-18T22:36:53.496Z,99.90
2019-05-18T22:39:26.647Z,99.90
2019-05-18T22:41:58.355Z,99.90
2019-05-18T22:44:30.192Z,99.90
2019-05-18T22:47:01.555Z,99.90
2019-05-18T22:49:32.979Z,99.90
2019-05-18T22:52:04.660Z,99.90
2019-05-18T22:54:36.443Z,99.90
2019-05-18T22:57:08.278Z,99.90
2019-05-18T22:59:39.768Z,99.90
2019-05-18T23:02:11.681Z,99.90
2019-05-18T23:04:43.184Z,99.90
2019-05-18T23:07:14.675Z,99.90
2019-05-18T23:09:46.063Z,99.90
2019-05-18T23:12:17.493Z,99.90
2019-05-18T23:14:48.905Z,99.90
2019-05-18T23:17:20.326Z,99.90
2019-05-18T23:19:52.933Z,99.90
2019-05-18T23:22:24.284Z,99.90
2019-05-18T23:24:55.754Z,99.90
2019-05-18T23:27:27.244Z,99.90
2019-05-18T23:29:58.776Z,99.90
2019-05-18T23:32:30.287Z,99.90
2019-05-18T23:35:01.765Z,99.90
2019-05-18T23:37:33.275Z,99.90
2019-05-18T23:40:05.229Z,99.90
2019-05-18T23:42:36.707Z,99.90
2019-05-18T23:45:10.323Z,99.90
2019-05-18T23:47:41.828Z,99.90
2019-05-18T23:50:13.673Z,99.90
2019-05-18T23:52:45.152Z,99.90
2019-05-18T23:55:16.752Z,99.90
2019-05-18T23:57:48.249Z,99.90
